createdAt,value
2023-03-06T00:01:01.295Z,99872.09
2023-03-06T00:04:03.002Z,99877.13
2023-03-06T00:07:04.696Z,99869.41
2023-03-06T00:10:07.016Z,99865.69
2023-03-06T00:13:14.030Z,99871.31
2023-03-06T00:16:15.656Z,99867.66
2023-03-06T00:19:17.337Z,99871.44
2023-03-06T00:22:19.079Z,99866.06
2023-03-06T00:25:21.580Z,99866.81
2023-03-06T00:28:23.484Z,99859.13
2023-03-06T00:31:25.224Z,99855.91
2023-03-06T00:34:27.199Z,99849.69
2023-03-06T00:37:28.827Z,99852.03
2023-03-06T00:40:30.471Z,99843.38
2023-03-06T00:43:32.135Z,99841.69
2023-03-06T00:46:33.775Z,99839.56
2023-03-06T00:49:35.657Z,99841.63
2023-03-06T00:52:37.422Z,99837.56
2023-03-06T00:55:39.075Z,99834.13
2023-03-06T00:58:40.800Z,99842.00
2023-03-06T01:01:42.480Z,99832.44
2023-03-06T01:04:44.324Z,99840.31
2023-03-06T01:07:46.062Z,99838.41
2023-03-06T01:10:47.694Z,99837.94
2023-03-06T01:13:49.744Z,99838.91
2023-03-06T01:16:51.471Z,99832.38
2023-03-06T01:19:53.127Z,99835.59
2023-03-06T01:22:56.637Z,99832.31
2023-03-06T01:25:59.086Z,99834.13
2023-03-06T01:29:01.322Z,99838.41
2023-03-06T01:32:03.084Z,99831.41
2023-03-06T01:35:05.630Z,99831.75
2023-03-06T01:38:07.370Z,99830.72
2023-03-06T01:41:10.958Z,99828.63
2023-03-06T01:44:13.800Z,99825.87
2023-03-06T01:47:15.532Z,99834.06
2023-03-06T01:50:17.343Z,99823.09
2023-03-06T01:53:20.186Z,99827.63
2023-03-06T01:56:22.968Z,99828.94
2023-03-06T01:59:27.009Z,99828.72
2023-03-06T02:02:29.019Z,99832.53
2023-03-06T02:05:31.211Z,99825.84
2023-03-06T02:08:33.499Z,99819.28
2023-03-06T02:11:35.153Z,99817.06
2023-03-06T02:14:38.188Z,99813.16
2023-03-06T02:17:41.705Z,99814.03
2023-03-06T02:21:00.448Z,99823.34
2023-03-06T02:24:17.361Z,99818.84
2023-03-06T02:27:19.983Z,99817.94
2023-03-06T02:30:23.690Z,99814.38
2023-03-06T02:33:29.342Z,99810.97
2023-03-06T02:36:32.660Z,99814.41
2023-03-06T02:39:38.201Z,99805.16
2023-03-06T02:42:47.223Z,99809.38
2023-03-06T02:45:51.310Z,99795.94
2023-03-06T02:48:53.210Z,99803.25
2023-03-06T02:51:54.905Z,99809.56
2023-03-06T02:54:56.690Z,99806.16
2023-03-06T02:57:58.512Z,99801.28
2023-03-06T03:01:00.220Z,99801.19
2023-03-06T03:04:01.861Z,99802.75
2023-03-06T03:07:03.566Z,99800.44
2023-03-06T03:10:05.648Z,99794.00
2023-03-06T03:13:07.291Z,99804.81
2023-03-06T03:16:14.180Z,99803.91
2023-03-06T03:19:15.818Z,99802.09
2023-03-06T03:22:18.506Z,99795.91
2023-03-06T03:25:20.745Z,99790.94
2023-03-06T03:28:22.389Z,99794.75
2023-03-06T03:31:24.252Z,99800.31
2023-03-06T03:34:26.237Z,99796.56
2023-03-06T03:37:28.037Z,99788.34
2023-03-06T03:40:29.796Z,99794.00
2023-03-06T03:43:32.189Z,99790.44
2023-03-06T03:46:33.966Z,99787.91
2023-03-06T03:49:35.638Z,99790.50
2023-03-06T03:52:37.399Z,99783.84
2023-03-06T03:55:39.448Z,99786.88
2023-03-06T03:58:41.117Z,99776.53
2023-03-06T04:01:42.829Z,99782.13
2023-03-06T04:04:44.538Z,99786.19
2023-03-06T04:07:46.377Z,99793.41
2023-03-06T04:10:48.044Z,99792.88
2023-03-06T04:13:49.686Z,99784.03
2023-03-06T04:16:51.363Z,99793.03
2023-03-06T04:19:53.179Z,99791.75
2023-03-06T04:22:54.790Z,99791.88
2023-03-06T04:25:56.476Z,99802.31
2023-03-06T04:28:58.660Z,99799.28
2023-03-06T04:32:00.340Z,99792.84
2023-03-06T04:35:02.356Z,99790.72
2023-03-06T04:38:04.528Z,99785.63
2023-03-06T04:41:06.161Z,99781.88
2023-03-06T04:44:08.622Z,99779.41
2023-03-06T04:47:11.236Z,99773.72
2023-03-06T04:50:13.270Z,99782.44
2023-03-06T04:53:16.787Z,99779.87
2023-03-06T04:56:18.864Z,99784.50
2023-03-06T04:59:20.565Z,99781.94
2023-03-06T05:02:24.290Z,99779.25
2023-03-06T05:05:26.698Z,99775.31
2023-03-06T05:08:28.527Z,99784.78
2023-03-06T05:11:30.539Z,99779.94
2023-03-06T05:14:32.305Z,99782.13
2023-03-06T05:17:34.182Z,99784.03
2023-03-06T05:20:35.809Z,99779.22
2023-03-06T05:23:41.106Z,99779.69
2023-03-06T05:26:42.756Z,99779.28
2023-03-06T05:29:44.495Z,99781.19
2023-03-06T05:32:46.212Z,99787.00
2023-03-06T05:35:48.822Z,99792.84
2023-03-06T05:38:50.500Z,99790.94
2023-03-06T05:41:52.134Z,99790.03
2023-03-06T05:44:53.794Z,99790.16
2023-03-06T05:47:55.431Z,99790.44
2023-03-06T05:50:58.348Z,99794.97
2023-03-06T05:53:59.982Z,99798.88
2023-03-06T05:57:02.138Z,99793.19
2023-03-06T06:00:04.474Z,99798.59
2023-03-06T06:03:06.138Z,99797.78
2023-03-06T06:06:09.772Z,99796.63
2023-03-06T06:09:13.849Z,99795.97
2023-03-06T06:12:15.677Z,99793.44
2023-03-06T06:15:17.421Z,99805.56
2023-03-06T06:18:19.118Z,99801.22
2023-03-06T06:21:21.046Z,99806.69
2023-03-06T06:24:25.124Z,99805.41
2023-03-06T06:27:26.816Z,99808.78
2023-03-06T06:30:28.579Z,99810.53
2023-03-06T06:33:30.239Z,99811.56
2023-03-06T06:36:32.510Z,99816.78
2023-03-06T06:39:34.141Z,99814.75
2023-03-06T06:42:39.909Z,99810.87
2023-03-06T06:45:44.215Z,99816.03
2023-03-06T06:48:49.349Z,99804.03
2023-03-06T06:51:50.985Z,99808.81
2023-03-06T06:54:53.171Z,99820.84
2023-03-06T06:57:54.836Z,99816.56
2023-03-06T07:00:56.492Z,99812.50
2023-03-06T07:03:58.281Z,99819.50
2023-03-06T07:07:00.256Z,99810.22
2023-03-06T07:10:02.801Z,99806.78
2023-03-06T07:13:04.454Z,99803.97
2023-03-06T07:16:06.622Z,99814.12
2023-03-06T07:19:08.682Z,99818.13
2023-03-06T07:22:10.393Z,99817.97
2023-03-06T07:25:12.598Z,99825.72
2023-03-06T07:28:14.433Z,99833.59
2023-03-06T07:31:16.211Z,99827.41
2023-03-06T07:34:17.881Z,99835.28
2023-03-06T07:37:19.876Z,99844.41
2023-03-06T07:40:22.092Z,99838.16
2023-03-06T07:43:23.746Z,99837.75
2023-03-06T07:46:25.536Z,99844.22
2023-03-06T07:49:27.185Z,99838.75
2023-03-06T07:52:29.463Z,99828.97
2023-03-06T07:55:31.128Z,99810.97
2023-03-06T07:58:32.744Z,99826.06
2023-03-06T08:01:36.262Z,99827.88
2023-03-06T08:04:38.239Z,99830.22
2023-03-06T08:07:39.937Z,99842.53
2023-03-06T08:10:46.854Z,99841.19
2023-03-06T08:13:49.384Z,99843.78
2023-03-06T08:16:51.330Z,99837.03
2023-03-06T08:19:52.970Z,99842.13
2023-03-06T08:22:54.629Z,99839.56
2023-03-06T08:26:01.119Z,99846.28
2023-03-06T08:29:02.952Z,99844.22
2023-03-06T08:32:04.922Z,99838.63
2023-03-06T08:35:07.189Z,99829.81
2023-03-06T08:38:08.864Z,99818.25
2023-03-06T08:41:10.577Z,99822.88
2023-03-06T08:44:12.916Z,99826.03
2023-03-06T08:47:14.579Z,99835.13
2023-03-06T08:50:16.400Z,99836.56
2023-03-06T08:53:18.389Z,99843.53
2023-03-06T08:56:20.020Z,99848.50
2023-03-06T08:59:21.668Z,99845.72
2023-03-06T09:02:23.417Z,99852.44
2023-03-06T09:05:25.203Z,99849.97
2023-03-06T09:08:26.852Z,99853.19
2023-03-06T09:11:30.314Z,99857.22
2023-03-06T09:14:32.186Z,99853.19
2023-03-06T09:17:33.861Z,99840.37
2023-03-06T09:20:35.621Z,99825.50
2023-03-06T09:23:39.607Z,99830.09
2023-03-06T09:26:46.206Z,99838.00
2023-03-06T09:29:48.806Z,99837.38
2023-03-06T09:32:50.441Z,99829.81
2023-03-06T09:35:55.080Z,99831.94
2023-03-06T09:38:56.890Z,99828.41
2023-03-06T09:41:59.205Z,99826.06
2023-03-06T09:45:04.713Z,99824.28
2023-03-06T09:48:15.017Z,99824.91
2023-03-06T09:51:18.830Z,99823.28
2023-03-06T09:54:32.883Z,99814.41
2023-03-06T09:57:42.782Z,99815.78
2023-03-06T10:01:24.948Z,99812.03
2023-03-06T10:04:42.640Z,99809.63
2023-03-06T10:08:06.430Z,99813.41
2023-03-06T10:11:10.835Z,99805.06
2023-03-06T10:14:12.403Z,99798.34
2023-03-06T10:17:20.822Z,99800.06
2023-03-06T10:20:24.549Z,99795.97
2023-03-06T10:23:49.144Z,99796.94
2023-03-06T10:27:29.584Z,99796.88
2023-03-06T10:30:44.739Z,99793.63
2023-03-06T10:33:58.510Z,99792.12
2023-03-06T10:37:11.842Z,99789.63
2023-03-06T10:40:20.093Z,99781.06
2023-03-06T10:43:23.741Z,99773.81
2023-03-06T10:46:37.377Z,99776.75
2023-03-06T10:49:39.119Z,99775.56
2023-03-06T10:52:40.759Z,99762.00
2023-03-06T10:55:52.184Z,99753.53
2023-03-06T10:59:12.484Z,99753.31
2023-03-06T11:02:26.057Z,99749.81
2023-03-06T11:05:27.731Z,99752.91
2023-03-06T11:08:30.772Z,99745.97
2023-03-06T11:11:37.793Z,99721.69
2023-03-06T11:14:39.767Z,99721.09
2023-03-06T11:18:02.920Z,99727.56
2023-03-06T11:21:23.398Z,99722.22
2023-03-06T11:24:25.260Z,99715.97
2023-03-06T11:27:34.601Z,99705.66
2023-03-06T11:30:43.082Z,99703.59
2023-03-06T11:33:50.586Z,99710.19
2023-03-06T11:37:08.337Z,99691.66
2023-03-06T11:40:28.957Z,99701.22
2023-03-06T11:44:00.832Z,99693.00
2023-03-06T11:47:17.254Z,99696.13
2023-03-06T11:50:25.637Z,99678.06
2023-03-06T11:53:37.000Z,99666.75
2023-03-06T11:56:51.780Z,99653.00
2023-03-06T12:00:18.300Z,99644.72
2023-03-06T12:03:45.056Z,99633.50
2023-03-06T12:07:11.055Z,99639.22
2023-03-06T12:10:15.585Z,99631.66
2023-03-06T12:14:05.287Z,99628.47
2023-03-06T12:17:19.397Z,99621.38
2023-03-06T12:20:56.149Z,99612.81
2023-03-06T12:24:29.819Z,99601.16
2023-03-06T12:27:34.434Z,99589.56
2023-03-06T12:31:20.254Z,99590.34
2023-03-06T12:34:43.709Z,99579.75
2023-03-06T12:38:00.050Z,99570.09
2023-03-06T12:41:27.742Z,99572.34
2023-03-06T12:45:20.649Z,99570.25
2023-03-06T12:48:27.525Z,99576.69
2023-03-06T12:51:30.209Z,99561.16
2023-03-06T12:54:37.281Z,99559.91
2023-03-06T12:57:38.945Z,99548.53
2023-03-06T13:01:03.705Z,99539.44
2023-03-06T13:04:05.696Z,99542.69
2023-03-06T13:07:22.818Z,99534.06
2023-03-06T13:10:35.835Z,99537.75
2023-03-06T13:13:46.140Z,99526.59
2023-03-06T13:16:47.833Z,99526.25
2023-03-06T13:20:15.642Z,99525.22
2023-03-06T13:23:29.612Z,99522.44
2023-03-06T13:26:31.225Z,99519.94
2023-03-06T13:29:35.911Z,99519.38
2023-03-06T13:32:37.639Z,99510.47
2023-03-06T13:35:42.297Z,99519.09
2023-03-06T13:38:43.978Z,99518.28
2023-03-06T13:41:59.306Z,99505.16
2023-03-06T13:45:17.910Z,99505.16
2023-03-06T13:48:46.224Z,99507.75
2023-03-06T13:51:53.688Z,99502.03
2023-03-06T13:55:24.177Z,99500.78
2023-03-06T13:58:50.814Z,99501.84
2023-03-06T14:02:10.067Z,99497.41
2023-03-06T14:05:17.098Z,99491.59
2023-03-06T14:08:22.692Z,99490.09
2023-03-06T14:11:25.173Z,99487.09
2023-03-06T14:14:36.044Z,99490.34
2023-03-06T14:17:39.189Z,99475.53
2023-03-06T14:20:48.488Z,99466.00
2023-03-06T14:24:00.399Z,99465.22
2023-03-06T14:27:02.698Z,99461.25
2023-03-06T14:30:13.620Z,99460.47
2023-03-06T14:33:44.501Z,99462.22
2023-03-06T14:36:49.207Z,99455.09
2023-03-06T14:39:51.867Z,99445.66
2023-03-06T14:43:15.675Z,99440.31
2023-03-06T14:46:22.480Z,99436.13
2023-03-06T14:49:26.225Z,99427.00
2023-03-06T14:52:28.341Z,99427.41
2023-03-06T14:55:32.855Z,99425.25
2023-03-06T14:58:40.386Z,99429.06
2023-03-06T15:01:43.583Z,99418.38
2023-03-06T15:04:49.156Z,99411.06
2023-03-06T15:07:52.812Z,99408.69
2023-03-06T15:10:59.684Z,99405.97
2023-03-06T15:14:03.872Z,99396.94
2023-03-06T15:17:41.923Z,99400.72
2023-03-06T15:20:50.215Z,99396.50
2023-03-06T15:23:54.406Z,99395.59
2023-03-06T15:27:07.091Z,99401.34
2023-03-06T15:30:35.738Z,99395.12
2023-03-06T15:33:37.746Z,99397.31
2023-03-06T15:36:48.436Z,99392.78
2023-03-06T15:40:04.403Z,99387.62
2023-03-06T15:43:10.933Z,99398.03
2023-03-06T15:46:13.321Z,99388.31
2023-03-06T15:49:18.367Z,99386.72
2023-03-06T15:52:23.199Z,99384.75
2023-03-06T15:55:26.208Z,99388.53
2023-03-06T15:58:31.669Z,99393.66
2023-03-06T16:01:36.081Z,99395.97
2023-03-06T16:04:38.696Z,99394.75
2023-03-06T16:07:40.494Z,99395.34
2023-03-06T16:10:45.090Z,99381.97
2023-03-06T16:13:46.977Z,99377.63
2023-03-06T16:16:49.706Z,99378.19
2023-03-06T16:19:51.681Z,99383.44
2023-03-06T16:22:56.705Z,99385.00
2023-03-06T16:25:58.444Z,99375.37
2023-03-06T16:29:00.950Z,99380.50
2023-03-06T16:32:03.214Z,99380.00
2023-03-06T16:35:05.432Z,99379.81
2023-03-06T16:38:07.793Z,99381.81
2023-03-06T16:41:12.139Z,99380.59
2023-03-06T16:44:13.875Z,99383.22
2023-03-06T16:47:17.271Z,99382.81
2023-03-06T16:50:28.735Z,99392.75
2023-03-06T16:53:30.683Z,99391.03
2023-03-06T16:56:32.342Z,99398.81
2023-03-06T16:59:34.194Z,99409.00
2023-03-06T17:02:36.586Z,99406.34
2023-03-06T17:05:39.399Z,99415.09
2023-03-06T17:08:41.726Z,99420.84
2023-03-06T17:11:50.054Z,99418.69
2023-03-06T17:14:56.540Z,99422.13
2023-03-06T17:17:58.330Z,99434.22
2023-03-06T17:21:00.415Z,99434.41
2023-03-06T17:24:04.144Z,99451.28
2023-03-06T17:27:06.062Z,99441.06
2023-03-06T17:30:09.206Z,99439.25
2023-03-06T17:33:11.043Z,99441.22
2023-03-06T17:36:16.100Z,99439.50
2023-03-06T17:39:17.841Z,99445.72
2023-03-06T17:42:19.709Z,99439.53
2023-03-06T17:45:21.891Z,99433.50
2023-03-06T17:48:24.043Z,99432.59
2023-03-06T17:51:26.480Z,99437.87
2023-03-06T17:54:30.196Z,99437.78
2023-03-06T17:57:32.389Z,99434.72
2023-03-06T18:00:34.409Z,99434.88
2023-03-06T18:03:38.499Z,99426.84
2023-03-06T18:06:41.005Z,99440.03
2023-03-06T18:09:43.596Z,99438.97
2023-03-06T18:12:47.538Z,99442.88
2023-03-06T18:15:49.763Z,99444.53
2023-03-06T18:18:56.528Z,99443.19
2023-03-06T18:21:58.724Z,99443.34
2023-03-06T18:25:01.540Z,99434.00
2023-03-06T18:28:04.040Z,99430.50
2023-03-06T18:31:09.232Z,99433.22
2023-03-06T18:34:14.182Z,99438.50
2023-03-06T18:37:17.338Z,99427.69
2023-03-06T18:40:20.304Z,99413.41
2023-03-06T18:43:24.178Z,99412.00
2023-03-06T18:46:33.828Z,99415.66
2023-03-06T18:49:37.471Z,99420.75
2023-03-06T18:52:41.238Z,99421.19
2023-03-06T18:55:51.740Z,99424.41
2023-03-06T18:58:54.446Z,99430.47
2023-03-06T19:01:57.811Z,99422.72
2023-03-06T19:05:00.190Z,99417.03
2023-03-06T19:08:05.718Z,99413.72
2023-03-06T19:11:11.989Z,99398.16
2023-03-06T19:14:15.330Z,99400.56
2023-03-06T19:17:18.318Z,99394.88
2023-03-06T19:20:20.686Z,99386.13
2023-03-06T19:23:24.408Z,99396.66
2023-03-06T19:26:29.859Z,99396.91
2023-03-06T19:29:34.505Z,99394.44
2023-03-06T19:32:37.091Z,99396.12
2023-03-06T19:35:39.748Z,99395.62
2023-03-06T19:38:42.817Z,99406.19
2023-03-06T19:41:51.251Z,99414.06
2023-03-06T19:44:53.760Z,99426.09
2023-03-06T19:48:01.155Z,99431.56
2023-03-06T19:51:05.164Z,99428.75
2023-03-06T19:54:07.812Z,99434.66
2023-03-06T19:57:11.716Z,99430.09
2023-03-06T20:00:14.991Z,99443.72
2023-03-06T20:03:16.903Z,99446.28
2023-03-06T20:06:21.079Z,99446.53
2023-03-06T20:09:24.700Z,99455.13
2023-03-06T20:12:29.208Z,99471.94
2023-03-06T20:15:35.430Z,99477.56
2023-03-06T20:18:39.235Z,99481.44
2023-03-06T20:21:41.477Z,99480.03
2023-03-06T20:24:44.059Z,99475.91
2023-03-06T20:27:48.221Z,99481.81
2023-03-06T20:30:51.073Z,99482.94
2023-03-06T20:33:54.976Z,99485.28
2023-03-06T20:36:58.556Z,99484.81
2023-03-06T20:40:00.991Z,99467.19
2023-03-06T20:43:03.764Z,99467.37
2023-03-06T20:46:07.388Z,99461.28
2023-03-06T20:49:11.648Z,99456.50
2023-03-06T20:52:14.362Z,99446.25
2023-03-06T20:55:16.927Z,99450.94
2023-03-06T20:58:19.406Z,99454.84
2023-03-06T21:01:27.486Z,99450.22
2023-03-06T21:04:29.870Z,99439.91
2023-03-06T21:07:32.000Z,99436.16
2023-03-06T21:10:34.158Z,99430.28
2023-03-06T21:13:36.031Z,99428.72
2023-03-06T21:16:39.318Z,99420.34
2023-03-06T21:19:42.038Z,99411.44
2023-03-06T21:22:43.832Z,99424.25
2023-03-06T21:25:49.706Z,99423.06
2023-03-06T21:28:52.246Z,99427.03
2023-03-06T21:31:53.942Z,99428.66
2023-03-06T21:34:56.158Z,99436.37
2023-03-06T21:37:57.892Z,99434.84
2023-03-06T21:41:19.191Z,99438.22
2023-03-06T21:44:21.112Z,99429.91
2023-03-06T21:47:22.756Z,99441.50
2023-03-06T21:50:25.078Z,99441.38
2023-03-06T21:53:26.715Z,99430.25
2023-03-06T21:56:28.574Z,99431.47
2023-03-06T21:59:30.290Z,99438.00
2023-03-06T22:02:31.907Z,99422.75
2023-03-06T22:05:33.583Z,99422.97
2023-03-06T22:08:35.233Z,99425.47
2023-03-06T22:11:37.445Z,99425.47
2023-03-06T22:14:39.169Z,99425.97
2023-03-06T22:17:41.681Z,99427.06
2023-03-06T22:20:43.421Z,99417.62
2023-03-06T22:23:52.609Z,99423.19
2023-03-06T22:26:54.237Z,99430.25
2023-03-06T22:29:56.091Z,99426.44
2023-03-06T22:32:57.749Z,99420.34
2023-03-06T22:36:02.736Z,99426.44
2023-03-06T22:39:04.499Z,99430.53
2023-03-06T22:42:06.221Z,99427.19
2023-03-06T22:45:08.441Z,99430.31
2023-03-06T22:48:11.284Z,99430.97
2023-03-06T22:51:18.889Z,99431.25
2023-03-06T22:54:20.568Z,99428.28
2023-03-06T22:57:22.236Z,99426.84
2023-03-06T23:00:23.890Z,99427.94
2023-03-06T23:03:25.523Z,99424.16
2023-03-06T23:06:31.211Z,99428.13
2023-03-06T23:09:33.172Z,99428.97
2023-03-06T23:12:34.864Z,99431.81
2023-03-06T23:15:37.027Z,99429.72
2023-03-06T23:18:39.923Z,99432.16
2023-03-06T23:21:41.848Z,99433.44
2023-03-06T23:24:43.492Z,99444.34
2023-03-06T23:27:45.130Z,99439.22
2023-03-06T23:30:46.838Z,99444.50
2023-03-06T23:33:48.655Z,99450.47
2023-03-06T23:36:50.481Z,99449.38
2023-03-06T23:39:52.139Z,99445.75
2023-03-06T23:42:53.764Z,99441.56
2023-03-06T23:45:56.063Z,99435.84
2023-03-06T23:48:57.707Z,99438.16
2023-03-06T23:51:59.654Z,99441.50
2023-03-06T23:55:01.349Z,99445.94
2023-03-06T23:58:02.996Z,99449.34
